createdAt,value
2018-12-16T00:06:03.812Z,0.16
2018-12-16T00:26:54.342Z,0.24
2018-12-16T01:05:35.175Z,0.37
2018-12-16T01:26:15.466Z,0.12
2018-12-16T01:46:54.931Z,-0.15
2018-12-16T02:07:34.274Z,-0.23
2018-12-16T02:28:11.451Z,-0.32
2018-12-16T03:27:46.473Z,-0.53
2018-12-16T03:48:27.991Z,-0.59
2018-12-16T04:27:15.392Z,-0.56
2018-12-16T04:47:57.483Z,-0.45
2018-12-16T05:08:34.735Z,-0.57
2018-12-16T05:29:14.607Z,-0.56
2018-12-16T05:49:54.285Z,-0.56
2018-12-16T06:28:32.876Z,-0.45
2018-12-16T06:49:13.156Z,-0.46
2018-12-16T07:09:54.673Z,-0.51
2018-12-16T07:30:37.832Z,-0.43
2018-12-16T07:51:18.939Z,-0.41
2018-12-16T08:30:00.396Z,-0.20
2018-12-16T08:50:37.612Z,-0.14
2018-12-16T09:32:07.199Z,0.00
2018-12-16T09:52:49.595Z,0.11
2018-12-16T10:31:29.554Z,0.49
2018-12-16T10:52:07.794Z,0.68
2018-12-16T11:12:53.003Z,0.97
2018-12-16T11:33:36.467Z,1.30
2018-12-16T11:54:19.317Z,1.60
2018-12-16T12:33:00.563Z,2.13
2018-12-16T12:53:39.623Z,2.24
2018-12-16T13:14:19.290Z,2.34
2018-12-16T13:34:56.518Z,2.27
2018-12-16T13:55:40.799Z,2.36
2018-12-16T14:34:23.784Z,2.36
2018-12-16T14:55:03.668Z,2.36
2018-12-16T15:15:44.367Z,2.44
2018-12-16T15:36:26.728Z,2.40
2018-12-16T15:57:07.009Z,2.39
2018-12-16T16:35:48.648Z,2.37
2018-12-16T16:56:28.950Z,2.35
2018-12-16T17:17:08.413Z,2.41
2018-12-16T17:37:48.701Z,2.36
2018-12-16T17:58:27.763Z,2.36
2018-12-16T18:37:09.005Z,2.33
2018-12-16T18:57:50.115Z,2.34
2018-12-16T19:18:31.663Z,2.36
2018-12-16T20:00:05.325Z,2.39
2018-12-16T20:20:45.642Z,2.41
2018-12-16T20:59:24.607Z,2.42
2018-12-16T21:20:05.894Z,2.45
2018-12-16T21:40:47.858Z,2.44
2018-12-16T22:01:27.323Z,2.43
2018-12-16T22:22:07.739Z,2.44
2018-12-16T23:00:51.722Z,2.43
2018-12-16T23:21:32.013Z,2.45
2018-12-16T23:42:12.301Z,2.47
